sensor_id;sensor_type;location;lat;lon;timestamp;P1;durP1;ratioP1;P2;durP2;ratioP2
22851;SDS011;11592;45.460;9.240;2022-12-24T00:00:08;80.40;;;45.50;;
22851;SDS011;11592;45.460;9.240;2022-12-24T00:02:35;83.93;;;45.17;;
22851;SDS011;11592;45.460;9.240;2022-12-24T00:05:03;85.85;;;46.13;;
22851;SDS011;11592;45.460;9.240;2022-12-24T00:07:30;83.03;;;45.03;;
22851;SDS011;11592;45.460;9.240;2022-12-24T00:09:57;96.22;;;46.75;;
22851;SDS011;11592;45.460;9.240;2022-12-24T00:12:23;83.78;;;47.45;;
22851;SDS011;11592;45.460;9.240;2022-12-24T00:14:50;81.13;;;45.47;;
22851;SDS011;11592;45.460;9.240;2022-12-24T00:17:17;91.63;;;46.90;;
22851;SDS011;11592;45.460;9.240;2022-12-24T00:19:44;89.78;;;47.13;;
22851;SDS011;11592;45.460;9.240;2022-12-24T00:22:11;91.53;;;46.95;;
22851;SDS011;11592;45.460;9.240;2022-12-24T00:24:38;94.25;;;47.50;;
22851;SDS011;11592;45.460;9.240;2022-12-24T00:27:04;88.97;;;46.15;;
22851;SDS011;11592;45.460;9.240;2022-12-24T00:29:31;89.25;;;47.05;;
22851;SDS011;11592;45.460;9.240;2022-12-24T00:31:58;85.50;;;45.80;;
22851;SDS011;11592;45.460;9.240;2022-12-24T00:34:25;92.05;;;48.55;;
22851;SDS011;11592;45.460;9.240;2022-12-24T00:36:52;92.85;;;48.95;;
22851;SDS011;11592;45.460;9.240;2022-12-24T00:39:19;89.40;;;48.42;;
22851;SDS011;11592;45.460;9.240;2022-12-24T00:41:46;88.15;;;48.53;;
22851;SDS011;11592;45.460;9.240;2022-12-24T00:44:13;92.85;;;48.15;;
22851;SDS011;11592;45.460;9.240;2022-12-24T00:46:40;91.65;;;49.42;;
22851;SDS011;11592;45.460;9.240;2022-12-24T00:49:08;91.60;;;47.90;;
22851;SDS011;11592;45.460;9.240;2022-12-24T00:51:36;94.13;;;49.58;;
22851;SDS011;11592;45.460;9.240;2022-12-24T00:54:03;95.90;;;47.85;;
22851;SDS011;11592;45.460;9.240;2022-12-24T00:56:31;86.45;;;46.92;;
22851;SDS011;11592;45.460;9.240;2022-12-24T00:58:58;90.80;;;45.03;;
22851;SDS011;11592;45.460;9.240;2022-12-24T01:01:25;86.35;;;47.35;;
22851;SDS011;11592;45.460;9.240;2022-12-24T01:03:53;94.15;;;47.47;;
22851;SDS011;11592;45.460;9.240;2022-12-24T01:06:43;95.82;;;47.72;;
22851;SDS011;11592;45.460;9.240;2022-12-24T01:09:10;93.60;;;45.28;;
22851;SDS011;11592;45.460;9.240;2022-12-24T01:11:37;95.47;;;47.80;;
22851;SDS011;11592;45.460;9.240;2022-12-24T01:14:04;90.80;;;47.92;;
22851;SDS011;11592;45.460;9.240;2022-12-24T01:16:31;94.03;;;48.75;;
22851;SDS011;11592;45.460;9.240;2022-12-24T01:18:58;90.40;;;48.90;;
22851;SDS011;11592;45.460;9.240;2022-12-24T01:21:24;96.63;;;49.17;;
22851;SDS011;11592;45.460;9.240;2022-12-24T01:23:51;95.80;;;48.85;;
22851;SDS011;11592;45.460;9.240;2022-12-24T01:26:18;90.43;;;48.67;;
22851;SDS011;11592;45.460;9.240;2022-12-24T01:28:45;95.22;;;47.90;;
22851;SDS011;11592;45.460;9.240;2022-12-24T01:31:13;92.53;;;46.30;;
22851;SDS011;11592;45.460;9.240;2022-12-24T01:33:42;93.10;;;48.33;;
22851;SDS011;11592;45.460;9.240;2022-12-24T01:36:09;88.15;;;47.28;;
22851;SDS011;11592;45.460;9.240;2022-12-24T01:38:37;102.38;;;49.65;;
22851;SDS011;11592;45.460;9.240;2022-12-24T01:41:04;91.53;;;48.28;;
22851;SDS011;11592;45.460;9.240;2022-12-24T01:43:49;88.45;;;47.63;;
22851;SDS011;11592;45.460;9.240;2022-12-24T01:48:52;98.45;;;48.75;;
22851;SDS011;11592;45.460;9.240;2022-12-24T01:51:23;90.43;;;49.00;;
22851;SDS011;11592;45.460;9.240;2022-12-24T01:53:56;92.35;;;47.45;;
22851;SDS011;11592;45.460;9.240;2022-12-24T01:56:27;98.30;;;49.05;;
22851;SDS011;11592;45.460;9.240;2022-12-24T01:58:59;95.13;;;49.60;;
22851;SDS011;11592;45.460;9.240;2022-12-24T02:01:31;93.53;;;47.88;;
22851;SDS011;11592;45.460;9.240;2022-12-24T02:03:59;99.45;;;49.22;;
22851;SDS011;11592;45.460;9.240;2022-12-24T02:06:30;96.53;;;48.53;;
22851;SDS011;11592;45.460;9.240;2022-12-24T02:08:56;94.65;;;50.53;;
22851;SDS011;11592;45.460;9.240;2022-12-24T02:11:23;96.30;;;50.90;;
22851;SDS011;11592;45.460;9.240;2022-12-24T02:13:51;91.10;;;47.70;;
22851;SDS011;11592;45.460;9.240;2022-12-24T02:16:26;94.85;;;49.72;;
22851;SDS011;11592;45.460;9.240;2022-12-24T02:21:49;96.88;;;48.78;;
22851;SDS011;11592;45.460;9.240;2022-12-24T02:24:44;95.95;;;49.20;;
22851;SDS011;11592;45.460;9.240;2022-12-24T02:27:32;94.55;;;47.67;;
22851;SDS011;11592;45.460;9.240;2022-12-24T02:30:22;99.10;;;48.63;;
22851;SDS011;11592;45.460;9.240;2022-12-24T02:41:10;103.00;;;50.63;;
22851;SDS011;11592;45.460;9.240;2022-12-24T02:44:19;95.10;;;49.63;;
22851;SDS011;11592;45.460;9.240;2022-12-24T02:46:51;102.40;;;49.83;;
22851;SDS011;11592;45.460;9.240;2022-12-24T02:49:19;92.78;;;49.80;;
22851;SDS011;11592;45.460;9.240;2022-12-24T02:51:46;102.47;;;50.33;;
22851;SDS011;11592;45.460;9.240;2022-12-24T02:54:13;93.85;;;48.17;;
22851;SDS011;11592;45.460;9.240;2022-12-24T02:59:54;94.82;;;48.20;;
22851;SDS011;11592;45.460;9.240;2022-12-24T03:11:03;106.20;;;50.90;;
22851;SDS011;11592;45.460;9.240;2022-12-24T03:13:34;99.50;;;50.08;;
22851;SDS011;11592;45.460;9.240;2022-12-24T03:16:03;104.55;;;51.83;;
22851;SDS011;11592;45.460;9.240;2022-12-24T03:18:32;100.25;;;52.15;;
22851;SDS011;11592;45.460;9.240;2022-12-24T03:23:28;101.50;;;50.58;;
22851;SDS011;11592;45.460;9.240;2022-12-24T03:25:55;102.07;;;50.60;;
22851;SDS011;11592;45.460;9.240;2022-12-24T03:28:24;97.25;;;50.92;;
22851;SDS011;11592;45.460;9.240;2022-12-24T03:30:54;99.18;;;50.30;;
22851;SDS011;11592;45.460;9.240;2022-12-24T03:33:21;102.00;;;49.92;;
22851;SDS011;11592;45.460;9.240;2022-12-24T03:35:48;100.50;;;49.55;;
22851;SDS011;11592;45.460;9.240;2022-12-24T03:38:15;102.38;;;50.95;;
22851;SDS011;11592;45.460;9.240;2022-12-24T03:40:41;100.32;;;50.58;;
22851;SDS011;11592;45.460;9.240;2022-12-24T03:43:08;97.43;;;47.40;;
22851;SDS011;11592;45.460;9.240;2022-12-24T03:45:35;103.07;;;51.42;;
22851;SDS011;11592;45.460;9.240;2022-12-24T03:48:02;93.40;;;48.22;;
22851;SDS011;11592;45.460;9.240;2022-12-24T03:50:29;103.70;;;52.58;;
22851;SDS011;11592;45.460;9.240;2022-12-24T03:52:57;97.93;;;50.42;;
22851;SDS011;11592;45.460;9.240;2022-12-24T03:55:23;97.05;;;50.63;;
22851;SDS011;11592;45.460;9.240;2022-12-24T03:57:50;102.45;;;52.17;;
22851;SDS011;11592;45.460;9.240;2022-12-24T04:00:17;98.32;;;50.20;;
22851;SDS011;11592;45.460;9.240;2022-12-24T04:02:44;100.30;;;50.22;;
22851;SDS011;11592;45.460;9.240;2022-12-24T04:05:15;99.20;;;49.60;;
22851;SDS011;11592;45.460;9.240;2022-12-24T04:07:44;98.65;;;49.03;;
22851;SDS011;11592;45.460;9.240;2022-12-24T04:10:12;95.90;;;48.30;;
22851;SDS011;11592;45.460;9.240;2022-12-24T04:12:39;101.07;;;47.13;;
22851;SDS011;11592;45.460;9.240;2022-12-24T04:15:07;90.97;;;48.08;;
22851;SDS011;11592;45.460;9.240;2022-12-24T04:17:34;99.65;;;48.55;;
22851;SDS011;11592;45.460;9.240;2022-12-24T04:20:01;93.93;;;47.40;;
22851;SDS011;11592;45.460;9.240;2022-12-24T04:22:27;97.32;;;48.67;;
22851;SDS011;11592;45.460;9.240;2022-12-24T04:24:54;95.80;;;46.45;;
22851;SDS011;11592;45.460;9.240;2022-12-24T04:27:21;98.80;;;47.78;;
22851;SDS011;11592;45.460;9.240;2022-12-24T04:29:55;97.82;;;47.45;;
22851;SDS011;11592;45.460;9.240;2022-12-24T04:32:23;93.45;;;48.42;;
22851;SDS011;11592;45.460;9.240;2022-12-24T04:34:51;96.95;;;47.65;;
22851;SDS011;11592;45.460;9.240;2022-12-24T04:37:18;91.72;;;45.92;;
22851;SDS011;11592;45.460;9.240;2022-12-24T04:39:44;97.88;;;49.83;;
22851;SDS011;11592;45.460;9.240;2022-12-24T04:42:11;93.57;;;47.40;;
22851;SDS011;11592;45.460;9.240;2022-12-24T04:44:38;92.28;;;47.40;;
22851;SDS011;11592;45.460;9.240;2022-12-24T04:47:05;97.03;;;48.92;;
22851;SDS011;11592;45.460;9.240;2022-12-24T04:49:32;99.47;;;47.42;;
22851;SDS011;11592;45.460;9.240;2022-12-24T04:51:58;86.85;;;46.75;;
22851;SDS011;11592;45.460;9.240;2022-12-24T04:54:25;89.68;;;45.50;;
22851;SDS011;11592;45.460;9.240;2022-12-24T04:56:52;92.10;;;47.20;;
22851;SDS011;11592;45.460;9.240;2022-12-24T04:59:19;96.13;;;48.10;;
22851;SDS011;11592;45.460;9.240;2022-12-24T05:01:45;95.10;;;46.97;;
22851;SDS011;11592;45.460;9.240;2022-12-24T05:04:12;99.70;;;50.05;;
22851;SDS011;11592;45.460;9.240;2022-12-24T05:06:39;96.95;;;47.15;;
22851;SDS011;11592;45.460;9.240;2022-12-24T05:09:07;93.28;;;48.70;;
22851;SDS011;11592;45.460;9.240;2022-12-24T05:11:34;95.82;;;48.60;;
22851;SDS011;11592;45.460;9.240;2022-12-24T05:14:00;94.93;;;49.00;;
22851;SDS011;11592;45.460;9.240;2022-12-24T05:16:27;97.53;;;49.00;;
22851;SDS011;11592;45.460;9.240;2022-12-24T05:18:54;98.20;;;49.38;;
22851;SDS011;11592;45.460;9.240;2022-12-24T05:21:22;93.10;;;49.70;;
22851;SDS011;11592;45.460;9.240;2022-12-24T05:23:50;91.63;;;48.85;;
22851;SDS011;11592;45.460;9.240;2022-12-24T05:26:37;99.47;;;50.10;;
22851;SDS011;11592;45.460;9.240;2022-12-24T05:29:09;95.38;;;48.97;;
22851;SDS011;11592;45.460;9.240;2022-12-24T05:31:40;95.88;;;48.78;;
22851;SDS011;11592;45.460;9.240;2022-12-24T05:34:08;98.65;;;48.08;;
22851;SDS011;11592;45.460;9.240;2022-12-24T05:36:35;93.57;;;48.03;;
22851;SDS011;11592;45.460;9.240;2022-12-24T05:39:03;96.35;;;48.80;;
22851;SDS011;11592;45.460;9.240;2022-12-24T05:41:38;94.68;;;48.60;;
22851;SDS011;11592;45.460;9.240;2022-12-24T05:44:05;97.25;;;49.83;;
22851;SDS011;11592;45.460;9.240;2022-12-24T05:46:32;95.50;;;47.40;;
22851;SDS011;11592;45.460;9.240;2022-12-24T05:48:59;97.28;;;47.80;;
22851;SDS011;11592;45.460;9.240;2022-12-24T05:51:25;98.07;;;48.83;;
22851;SDS011;11592;45.460;9.240;2022-12-24T05:53:52;90.80;;;48.13;;
22851;SDS011;11592;45.460;9.240;2022-12-24T05:56:20;97.35;;;49.78;;
22851;SDS011;11592;45.460;9.240;2022-12-24T05:58:48;98.13;;;47.90;;
22851;SDS011;11592;45.460;9.240;2022-12-24T06:01:15;94.78;;;47.90;;
22851;SDS011;11592;45.460;9.240;2022-12-24T06:03:43;91.00;;;47.47;;
22851;SDS011;11592;45.460;9.240;2022-12-24T06:06:11;99.13;;;48.83;;
22851;SDS011;11592;45.460;9.240;2022-12-24T06:08:40;96.32;;;48.78;;
22851;SDS011;11592;45.460;9.240;2022-12-24T06:11:09;98.13;;;47.80;;
22851;SDS011;11592;45.460;9.240;2022-12-24T06:13:38;89.25;;;46.70;;
22851;SDS011;11592;45.460;9.240;2022-12-24T06:16:06;100.10;;;48.85;;
22851;SDS011;11592;45.460;9.240;2022-12-24T06:18:35;95.50;;;47.90;;
22851;SDS011;11592;45.460;9.240;2022-12-24T06:21:02;105.20;;;48.65;;
22851;SDS011;11592;45.460;9.240;2022-12-24T06:23:30;96.80;;;48.65;;
22851;SDS011;11592;45.460;9.240;2022-12-24T06:26:00;103.30;;;51.45;;
22851;SDS011;11592;45.460;9.240;2022-12-24T06:28:29;98.50;;;48.78;;
22851;SDS011;11592;45.460;9.240;2022-12-24T06:30:57;99.28;;;48.15;;
22851;SDS011;11592;45.460;9.240;2022-12-24T06:33:29;101.47;;;50.40;;
22851;SDS011;11592;45.460;9.240;2022-12-24T06:35:57;100.18;;;49.90;;
22851;SDS011;11592;45.460;9.240;2022-12-24T06:38:24;98.60;;;48.88;;
22851;SDS011;11592;45.460;9.240;2022-12-24T06:40:51;95.63;;;49.28;;
22851;SDS011;11592;45.460;9.240;2022-12-24T06:43:18;97.38;;;49.25;;
22851;SDS011;11592;45.460;9.240;2022-12-24T06:45:45;95.25;;;48.15;;
22851;SDS011;11592;45.460;9.240;2022-12-24T06:48:13;95.45;;;47.80;;
22851;SDS011;11592;45.460;9.240;2022-12-24T06:50:40;106.05;;;51.45;;
22851;SDS011;11592;45.460;9.240;2022-12-24T06:53:08;98.85;;;49.28;;
22851;SDS011;11592;45.460;9.240;2022-12-24T06:55:35;97.50;;;48.55;;
22851;SDS011;11592;45.460;9.240;2022-12-24T06:58:02;97.10;;;49.85;;
22851;SDS011;11592;45.460;9.240;2022-12-24T07:00:29;97.85;;;48.33;;
22851;SDS011;11592;45.460;9.240;2022-12-24T07:02:56;116.55;;;52.22;;
22851;SDS011;11592;45.460;9.240;2022-12-24T07:05:23;98.50;;;49.75;;
22851;SDS011;11592;45.460;9.240;2022-12-24T07:07:50;105.55;;;48.38;;
22851;SDS011;11592;45.460;9.240;2022-12-24T07:10:18;103.47;;;48.25;;
22851;SDS011;11592;45.460;9.240;2022-12-24T07:12:45;109.03;;;50.13;;
22851;SDS011;11592;45.460;9.240;2022-12-24T07:15:13;106.70;;;49.70;;
22851;SDS011;11592;45.460;9.240;2022-12-24T07:17:40;102.18;;;48.17;;
22851;SDS011;11592;45.460;9.240;2022-12-24T07:20:09;108.55;;;50.47;;
22851;SDS011;11592;45.460;9.240;2022-12-24T07:22:39;105.90;;;48.22;;
22851;SDS011;11592;45.460;9.240;2022-12-24T07:25:06;105.68;;;49.45;;
22851;SDS011;11592;45.460;9.240;2022-12-24T07:27:33;101.32;;;47.60;;
22851;SDS011;11592;45.460;9.240;2022-12-24T07:30:00;99.43;;;48.33;;
22851;SDS011;11592;45.460;9.240;2022-12-24T07:32:27;104.82;;;49.10;;
22851;SDS011;11592;45.460;9.240;2022-12-24T07:34:54;91.10;;;46.47;;
22851;SDS011;11592;45.460;9.240;2022-12-24T07:37:21;107.15;;;49.45;;
22851;SDS011;11592;45.460;9.240;2022-12-24T07:39:47;108.72;;;49.97;;
22851;SDS011;11592;45.460;9.240;2022-12-24T07:42:14;103.38;;;47.58;;
22851;SDS011;11592;45.460;9.240;2022-12-24T07:44:41;106.70;;;49.28;;
22851;SDS011;11592;45.460;9.240;2022-12-24T07:47:08;110.72;;;48.65;;
22851;SDS011;11592;45.460;9.240;2022-12-24T07:49:35;111.57;;;47.45;;
22851;SDS011;11592;45.460;9.240;2022-12-24T07:52:02;104.32;;;46.85;;
22851;SDS011;11592;45.460;9.240;2022-12-24T07:54:29;107.32;;;47.35;;
22851;SDS011;11592;45.460;9.240;2022-12-24T07:56:56;99.15;;;47.58;;
22851;SDS011;11592;45.460;9.240;2022-12-24T07:59:22;95.95;;;45.25;;
22851;SDS011;11592;45.460;9.240;2022-12-24T08:01:49;108.07;;;47.85;;
22851;SDS011;11592;45.460;9.240;2022-12-24T08:04:16;106.13;;;46.90;;
22851;SDS011;11592;45.460;9.240;2022-12-24T08:06:43;111.40;;;48.63;;
22851;SDS011;11592;45.460;9.240;2022-12-24T08:09:10;105.40;;;47.83;;
22851;SDS011;11592;45.460;9.240;2022-12-24T08:11:39;104.82;;;46.72;;
22851;SDS011;11592;45.460;9.240;2022-12-24T08:14:13;98.15;;;45.65;;
22851;SDS011;11592;45.460;9.240;2022-12-24T08:16:40;99.28;;;45.75;;
22851;SDS011;11592;45.460;9.240;2022-12-24T08:19:07;105.88;;;48.53;;
22851;SDS011;11592;45.460;9.240;2022-12-24T08:21:34;96.13;;;46.67;;
22851;SDS011;11592;45.460;9.240;2022-12-24T08:24:01;99.13;;;48.08;;
22851;SDS011;11592;45.460;9.240;2022-12-24T08:26:28;93.85;;;44.80;;
22851;SDS011;11592;45.460;9.240;2022-12-24T08:28:54;99.53;;;45.22;;
22851;SDS011;11592;45.460;9.240;2022-12-24T08:31:21;99.35;;;47.55;;
22851;SDS011;11592;45.460;9.240;2022-12-24T08:33:48;99.65;;;45.70;;
22851;SDS011;11592;45.460;9.240;2022-12-24T08:36:15;102.65;;;47.70;;
22851;SDS011;11592;45.460;9.240;2022-12-24T08:38:42;97.32;;;44.95;;
22851;SDS011;11592;45.460;9.240;2022-12-24T08:41:09;95.10;;;45.58;;
22851;SDS011;11592;45.460;9.240;2022-12-24T08:43:35;103.90;;;47.70;;
22851;SDS011;11592;45.460;9.240;2022-12-24T08:46:03;90.95;;;44.45;;
22851;SDS011;11592;45.460;9.240;2022-12-24T08:48:32;97.45;;;46.33;;
22851;SDS011;11592;45.460;9.240;2022-12-24T08:50:59;92.80;;;45.10;;
22851;SDS011;11592;45.460;9.240;2022-12-24T08:53:25;94.45;;;44.78;;
22851;SDS011;11592;45.460;9.240;2022-12-24T08:55:59;102.35;;;44.50;;
22851;SDS011;11592;45.460;9.240;2022-12-24T08:58:28;92.18;;;42.70;;
22851;SDS011;11592;45.460;9.240;2022-12-24T09:00:55;94.63;;;46.53;;
22851;SDS011;11592;45.460;9.240;2022-12-24T09:03:22;95.38;;;45.08;;
22851;SDS011;11592;45.460;9.240;2022-12-24T09:05:53;100.88;;;46.10;;
22851;SDS011;11592;45.460;9.240;2022-12-24T09:08:20;95.50;;;45.70;;
22851;SDS011;11592;45.460;9.240;2022-12-24T09:10:47;89.47;;;44.50;;
22851;SDS011;11592;45.460;9.240;2022-12-24T09:13:14;93.63;;;42.72;;
22851;SDS011;11592;45.460;9.240;2022-12-24T09:15:40;91.43;;;43.75;;
22851;SDS011;11592;45.460;9.240;2022-12-24T09:18:07;88.20;;;43.20;;
22851;SDS011;11592;45.460;9.240;2022-12-24T09:20:34;91.65;;;44.83;;
22851;SDS011;11592;45.460;9.240;2022-12-24T09:23:01;99.00;;;45.58;;
22851;SDS011;11592;45.460;9.240;2022-12-24T09:25:28;88.65;;;42.15;;
22851;SDS011;11592;45.460;9.240;2022-12-24T09:27:54;86.20;;;43.10;;
22851;SDS011;11592;45.460;9.240;2022-12-24T09:30:21;93.72;;;42.67;;
22851;SDS011;11592;45.460;9.240;2022-12-24T09:32:49;90.50;;;44.03;;
22851;SDS011;11592;45.460;9.240;2022-12-24T09:35:16;93.90;;;42.72;;
22851;SDS011;11592;45.460;9.240;2022-12-24T09:37:43;183.13;;;48.10;;
22851;SDS011;11592;45.460;9.240;2022-12-24T09:40:16;165.82;;;46.65;;
22851;SDS011;11592;45.460;9.240;2022-12-24T09:42:50;111.75;;;43.20;;
22851;SDS011;11592;45.460;9.240;2022-12-24T09:45:23;89.45;;;41.60;;
22851;SDS011;11592;45.460;9.240;2022-12-24T09:48:00;87.45;;;41.58;;
22851;SDS011;11592;45.460;9.240;2022-12-24T09:54:03;84.97;;;39.90;;
22851;SDS011;11592;45.460;9.240;2022-12-24T09:56:20;83.93;;;38.90;;
22851;SDS011;11592;45.460;9.240;2022-12-24T09:59:01;81.25;;;39.13;;
22851;SDS011;11592;45.460;9.240;2022-12-24T10:01:31;80.60;;;37.50;;
22851;SDS011;11592;45.460;9.240;2022-12-24T10:04:03;82.22;;;39.22;;
22851;SDS011;11592;45.460;9.240;2022-12-24T10:06:37;90.55;;;39.70;;
22851;SDS011;11592;45.460;9.240;2022-12-24T10:12:12;80.22;;;39.17;;
22851;SDS011;11592;45.460;9.240;2022-12-24T10:15:29;80.78;;;40.40;;
22851;SDS011;11592;45.460;9.240;2022-12-24T10:21:14;92.15;;;42.40;;
22851;SDS011;11592;45.460;9.240;2022-12-24T10:23:48;87.03;;;42.23;;
22851;SDS011;11592;45.460;9.240;2022-12-24T10:31:53;76.68;;;39.65;;
22851;SDS011;11592;45.460;9.240;2022-12-24T10:34:27;85.28;;;41.85;;
22851;SDS011;11592;45.460;9.240;2022-12-24T10:36:58;82.28;;;40.25;;
22851;SDS011;11592;45.460;9.240;2022-12-24T10:39:29;80.90;;;39.40;;
22851;SDS011;11592;45.460;9.240;2022-12-24T10:41:56;80.35;;;39.42;;
22851;SDS011;11592;45.460;9.240;2022-12-24T10:44:26;83.95;;;39.97;;
22851;SDS011;11592;45.460;9.240;2022-12-24T10:46:56;82.40;;;41.50;;
22851;SDS011;11592;45.460;9.240;2022-12-24T10:49:29;81.63;;;39.85;;
22851;SDS011;11592;45.460;9.240;2022-12-24T10:52:09;85.70;;;39.90;;
22851;SDS011;11592;45.460;9.240;2022-12-24T10:57:31;85.47;;;39.85;;
22851;SDS011;11592;45.460;9.240;2022-12-24T10:59:59;87.18;;;41.58;;
22851;SDS011;11592;45.460;9.240;2022-12-24T11:02:37;80.60;;;40.17;;
22851;SDS011;11592;45.460;9.240;2022-12-24T11:07:59;79.22;;;39.40;;
22851;SDS011;11592;45.460;9.240;2022-12-24T11:10:30;75.40;;;39.65;;
22851;SDS011;11592;45.460;9.240;2022-12-24T11:13:01;84.43;;;41.90;;
22851;SDS011;11592;45.460;9.240;2022-12-24T11:15:49;80.43;;;40.17;;
22851;SDS011;11592;45.460;9.240;2022-12-24T11:18:25;87.25;;;40.67;;
22851;SDS011;11592;45.460;9.240;2022-12-24T11:20:52;78.57;;;40.40;;
22851;SDS011;11592;45.460;9.240;2022-12-24T11:23:19;83.63;;;39.20;;
22851;SDS011;11592;45.460;9.240;2022-12-24T11:25:48;79.32;;;37.95;;
22851;SDS011;11592;45.460;9.240;2022-12-24T11:28:37;82.65;;;39.10;;
22851;SDS011;11592;45.460;9.240;2022-12-24T11:31:17;88.43;;;39.22;;
22851;SDS011;11592;45.460;9.240;2022-12-24T11:33:46;81.97;;;39.63;;
22851;SDS011;11592;45.460;9.240;2022-12-24T11:36:19;83.18;;;38.55;;
22851;SDS011;11592;45.460;9.240;2022-12-24T11:38:51;86.60;;;42.05;;
22851;SDS011;11592;45.460;9.240;2022-12-24T11:41:20;84.45;;;41.28;;
22851;SDS011;11592;45.460;9.240;2022-12-24T11:43:48;94.80;;;43.55;;
22851;SDS011;11592;45.460;9.240;2022-12-24T11:46:18;87.65;;;43.38;;
22851;SDS011;11592;45.460;9.240;2022-12-24T11:48:46;87.10;;;42.03;;
22851;SDS011;11592;45.460;9.240;2022-12-24T11:51:19;91.32;;;43.28;;
22851;SDS011;11592;45.460;9.240;2022-12-24T11:53:49;92.72;;;43.90;;
22851;SDS011;11592;45.460;9.240;2022-12-24T11:56:34;93.57;;;44.90;;
22851;SDS011;11592;45.460;9.240;2022-12-24T11:59:07;92.00;;;45.85;;
22851;SDS011;11592;45.460;9.240;2022-12-24T12:01:48;98.57;;;45.70;;
22851;SDS011;11592;45.460;9.240;2022-12-24T12:04:29;90.78;;;44.83;;
22851;SDS011;11592;45.460;9.240;2022-12-24T12:06:59;105.65;;;46.10;;
22851;SDS011;11592;45.460;9.240;2022-12-24T12:09:41;100.80;;;44.40;;
22851;SDS011;11592;45.460;9.240;2022-12-24T12:12:14;99.53;;;47.35;;
22851;SDS011;11592;45.460;9.240;2022-12-24T12:14:45;101.43;;;48.17;;
22851;SDS011;11592;45.460;9.240;2022-12-24T12:17:32;96.53;;;45.70;;
22851;SDS011;11592;45.460;9.240;2022-12-24T12:25:49;113.97;;;50.72;;
22851;SDS011;11592;45.460;9.240;2022-12-24T12:28:21;116.55;;;51.63;;
22851;SDS011;11592;45.460;9.240;2022-12-24T12:31:11;109.32;;;51.13;;
22851;SDS011;11592;45.460;9.240;2022-12-24T12:34:28;122.53;;;54.58;;
22851;SDS011;11592;45.460;9.240;2022-12-24T12:39:14;135.15;;;56.80;;
22851;SDS011;11592;45.460;9.240;2022-12-24T12:41:44;126.25;;;55.53;;
22851;SDS011;11592;45.460;9.240;2022-12-24T12:44:37;129.88;;;57.80;;
22851;SDS011;11592;45.460;9.240;2022-12-24T12:50:02;125.97;;;56.10;;
22851;SDS011;11592;45.460;9.240;2022-12-24T12:57:50;122.45;;;54.88;;
22851;SDS011;11592;45.460;9.240;2022-12-24T13:00:21;127.38;;;58.50;;
22851;SDS011;11592;45.460;9.240;2022-12-24T13:06:08;125.07;;;55.67;;
22851;SDS011;11592;45.460;9.240;2022-12-24T13:22:22;124.95;;;56.95;;
22851;SDS011;11592;45.460;9.240;2022-12-24T13:24:50;129.07;;;55.78;;
22851;SDS011;11592;45.460;9.240;2022-12-24T13:27:33;126.43;;;55.72;;
22851;SDS011;11592;45.460;9.240;2022-12-24T13:30:02;130.32;;;56.10;;
22851;SDS011;11592;45.460;9.240;2022-12-24T13:32:52;136.40;;;58.78;;
22851;SDS011;11592;45.460;9.240;2022-12-24T13:37:47;141.88;;;60.15;;
22851;SDS011;11592;45.460;9.240;2022-12-24T13:40:16;131.80;;;59.38;;
22851;SDS011;11592;45.460;9.240;2022-12-24T13:58:43;132.60;;;57.55;;
22851;SDS011;11592;45.460;9.240;2022-12-24T14:01:17;133.50;;;57.33;;
22851;SDS011;11592;45.460;9.240;2022-12-24T14:03:47;135.02;;;57.50;;
22851;SDS011;11592;45.460;9.240;2022-12-24T14:08:46;141.77;;;58.70;;
22851;SDS011;11592;45.460;9.240;2022-12-24T14:13:53;136.15;;;58.53;;
22851;SDS011;11592;45.460;9.240;2022-12-24T14:16:44;146.07;;;58.60;;
22851;SDS011;11592;45.460;9.240;2022-12-24T14:19:17;139.27;;;60.70;;
22851;SDS011;11592;45.460;9.240;2022-12-24T14:21:51;141.75;;;56.97;;
22851;SDS011;11592;45.460;9.240;2022-12-24T14:24:55;147.07;;;58.90;;
22851;SDS011;11592;45.460;9.240;2022-12-24T14:30:19;132.55;;;57.47;;
22851;SDS011;11592;45.460;9.240;2022-12-24T14:32:54;132.75;;;57.50;;
22851;SDS011;11592;45.460;9.240;2022-12-24T14:35:28;137.80;;;58.53;;
22851;SDS011;11592;45.460;9.240;2022-12-24T14:40:49;135.50;;;59.15;;
22851;SDS011;11592;45.460;9.240;2022-12-24T14:45:58;137.43;;;60.53;;
22851;SDS011;11592;45.460;9.240;2022-12-24T14:48:43;139.32;;;58.70;;
22851;SDS011;11592;45.460;9.240;2022-12-24T15:02:36;146.80;;;61.50;;
22851;SDS011;11592;45.460;9.240;2022-12-24T15:05:23;136.95;;;57.90;;
22851;SDS011;11592;45.460;9.240;2022-12-24T15:10:33;138.65;;;60.97;;
22851;SDS011;11592;45.460;9.240;2022-12-24T15:15:46;131.40;;;58.35;;
22851;SDS011;11592;45.460;9.240;2022-12-24T15:18:19;142.80;;;61.88;;
22851;SDS011;11592;45.460;9.240;2022-12-24T15:20:51;130.15;;;59.47;;
22851;SDS011;11592;45.460;9.240;2022-12-24T15:23:31;132.75;;;56.95;;
22851;SDS011;11592;45.460;9.240;2022-12-24T15:26:06;134.43;;;58.65;;
22851;SDS011;11592;45.460;9.240;2022-12-24T15:28:51;130.65;;;58.22;;
22851;SDS011;11592;45.460;9.240;2022-12-24T15:31:28;131.98;;;59.40;;
22851;SDS011;11592;45.460;9.240;2022-12-24T15:33:55;126.93;;;59.00;;
22851;SDS011;11592;45.460;9.240;2022-12-24T15:36:32;136.57;;;58.63;;
22851;SDS011;11592;45.460;9.240;2022-12-24T15:41:40;136.40;;;58.08;;
22851;SDS011;11592;45.460;9.240;2022-12-24T15:44:27;138.00;;;57.97;;
22851;SDS011;11592;45.460;9.240;2022-12-24T15:46:59;127.05;;;58.28;;
22851;SDS011;11592;45.460;9.240;2022-12-24T15:49:27;125.97;;;59.55;;
22851;SDS011;11592;45.460;9.240;2022-12-24T15:52:07;132.60;;;57.97;;
22851;SDS011;11592;45.460;9.240;2022-12-24T15:54:36;141.13;;;59.63;;
22851;SDS011;11592;45.460;9.240;2022-12-24T15:57:12;149.55;;;60.58;;
22851;SDS011;11592;45.460;9.240;2022-12-24T15:59:39;140.35;;;59.45;;
22851;SDS011;11592;45.460;9.240;2022-12-24T16:05:30;148.60;;;59.55;;
22851;SDS011;11592;45.460;9.240;2022-12-24T16:08:29;150.00;;;60.75;;
22851;SDS011;11592;45.460;9.240;2022-12-24T16:13:37;147.05;;;61.25;;
22851;SDS011;11592;45.460;9.240;2022-12-24T16:16:08;157.45;;;62.88;;
22851;SDS011;11592;45.460;9.240;2022-12-24T16:18:59;147.98;;;59.33;;
22851;SDS011;11592;45.460;9.240;2022-12-24T16:21:29;152.57;;;62.55;;
22851;SDS011;11592;45.460;9.240;2022-12-24T16:24:04;152.40;;;61.85;;
22851;SDS011;11592;45.460;9.240;2022-12-24T16:26:40;165.50;;;63.65;;
22851;SDS011;11592;45.460;9.240;2022-12-24T16:29:08;150.77;;;62.95;;
22851;SDS011;11592;45.460;9.240;2022-12-24T16:31:57;147.80;;;61.33;;
22851;SDS011;11592;45.460;9.240;2022-12-24T16:34:25;149.60;;;63.05;;
22851;SDS011;11592;45.460;9.240;2022-12-24T16:36:54;160.07;;;61.75;;
22851;SDS011;11592;45.460;9.240;2022-12-24T16:39:23;154.38;;;63.42;;
22851;SDS011;11592;45.460;9.240;2022-12-24T16:41:56;163.88;;;65.07;;
22851;SDS011;11592;45.460;9.240;2022-12-24T16:44:43;158.00;;;62.97;;
22851;SDS011;11592;45.460;9.240;2022-12-24T16:47:11;162.68;;;64.15;;
22851;SDS011;11592;45.460;9.240;2022-12-24T16:49:47;155.48;;;64.53;;
22851;SDS011;11592;45.460;9.240;2022-12-24T16:52:15;148.55;;;63.15;;
22851;SDS011;11592;45.460;9.240;2022-12-24T16:54:45;149.75;;;62.65;;